Rockland, Massachusetts
Current Conditions -  °F | °C
As of 7:50 AM on Wednesday 22 Oct 2014 (Local Time) from KGHG Reporting Station
Overcast Overcast  
Wind Chill: 57°   Ceiling: 800
Heat Index: 57°   Visibility: 10mi
Dew Point: 55°   Wind: 17mph
Humidity: 94%   Direction: 50°NE
Pressure: 29.99"   Gusts: 26mph
Location:  42.13°N, 70.92°W
Report Text: KGHG 221150Z AUTO 05015G23KT 10SM OVC008 14/13 A2999 RMK AO2
Loading
Personal Weather Stations






























Interactive Weather Map
Tropical Storm Tracking
New forecast layout! Learn more

10-Day Weather Forecast

Advertisements
Track Severe Weather on mobile